Time;durP1;ratioP1;P1;durP2;ratioP2;P2;SDS_P1;SDS_P2;PMS_P1;PMS_P2;Temp;Humidity;BMP_temperature;BMP_pressure;BME280_temperature;BME280_humidity;BME280_pressure;Samples;Min_cycle;Max_cycle;Signal;HPM_P1;HPM_P2
2021/07/23 00:01:40;;;;;;;1.30;1.30;;;18.80;98.00;;;;;;5112513;28;20512;-71
2021/07/23 00:04:07;;;;;;;1.70;1.60;;;18.80;98.00;;;;;;5112577;28;20483;-71
2021/07/23 00:06:35;;;;;;;2.73;1.97;;;18.70;98.00;;;;;;5112442;28;20482;-71
2021/07/23 00:09:02;;;;;;;2.87;1.80;;;18.50;98.00;;;;;;5112476;28;20454;-71
2021/07/23 00:11:31;;;;;;;1.60;1.50;;;18.50;98.00;;;;;;5112588;28;20495;-71
2021/07/23 00:13:59;;;;;;;2.50;1.73;;;18.40;98.00;;;;;;5112342;28;20974;-72
2021/07/23 00:16:26;;;;;;;1.83;1.57;;;18.60;98.00;;;;;;5112116;28;20483;-72
2021/07/23 00:18:53;;;;;;;1.60;1.50;;;18.60;98.00;;;;;;5112476;28;20501;-71
2021/07/23 00:21:20;;;;;;;2.37;1.30;;;18.60;98.00;;;;;;5112321;28;20515;-71
2021/07/23 00:23:47;;;;;;;2.80;1.80;;;18.60;98.00;;;;;;5112541;28;20451;-71
2021/07/23 00:26:18;;;;;;;4.10;1.90;;;18.30;98.00;;;;;;5112277;28;20794;-71
2021/07/23 00:28:46;;;;;;;1.90;1.47;;;18.10;98.00;;;;;;5112354;28;20447;-71
2021/07/23 00:31:14;;;;;;;1.97;1.77;;;18.00;98.00;;;;;;5111026;28;20957;-71
2021/07/23 00:33:41;;;;;;;2.60;1.90;;;18.00;98.00;;;;;;5112540;28;20954;-71
2021/07/23 00:36:08;;;;;;;4.30;2.53;;;17.90;98.00;;;;;;5112613;28;20490;-71
2021/07/23 00:38:35;;;;;;;3.07;2.07;;;17.90;98.00;;;;;;5116934;28;20973;-71
2021/07/23 00:41:02;;;;;;;1.40;1.30;;;17.90;98.00;;;;;;5116191;28;20459;-71
2021/07/23 00:43:29;;;;;;;1.87;1.67;;;17.70;98.00;;;;;;5116274;28;20482;-71
2021/07/23 00:45:56;;;;;;;3.03;1.73;;;17.80;98.00;;;;;;5116210;28;20496;-71
2021/07/23 00:48:25;;;;;;;1.47;1.47;;;18.00;98.00;;;;;;5116246;28;20454;-71
2021/07/23 00:50:52;;;;;;;1.70;1.50;;;18.10;98.00;;;;;;5115901;28;20459;-71
2021/07/23 00:53:20;;;;;;;3.60;2.03;;;17.90;98.00;;;;;;5116163;28;20524;-71
2021/07/23 00:55:53;;;;;;;1.70;1.43;;;17.90;98.00;;;;;;5116022;28;20508;-71
2021/07/23 00:58:20;;;;;;;1.60;1.50;;;17.80;98.00;;;;;;5115871;28;20483;-71
2021/07/23 01:00:48;;;;;;;2.93;1.50;;;17.80;98.00;;;;;;5114580;28;20925;-71
2021/07/23 01:03:15;;;;;;;2.80;1.70;;;17.90;98.00;;;;;;5115991;28;21009;-71
2021/07/23 01:05:44;;;;;;;4.03;2.00;;;17.90;98.00;;;;;;5115713;28;20500;-71
2021/07/23 01:08:11;;;;;;;1.53;1.37;;;17.80;98.00;;;;;;5115765;28;20459;-71
2021/07/23 01:10:39;;;;;;;1.77;1.70;;;17.80;98.00;;;;;;5114468;28;20494;-71
2021/07/23 01:13:07;;;;;;;2.60;1.90;;;17.60;98.00;;;;;;5115710;28;20451;-72
2021/07/23 01:15:34;;;;;;;2.50;2.03;;;17.50;98.00;;;;;;5115244;28;20519;-71
2021/07/23 01:18:01;;;;;;;5.20;2.03;;;17.40;98.00;;;;;;5115595;28;20479;-71
2021/07/23 01:20:29;;;;;;;2.77;2.27;;;17.30;98.00;;;;;;5115642;28;20467;-71
2021/07/23 01:23:01;;;;;;;2.87;1.33;;;17.20;98.00;;;;;;5115499;28;20784;-71
2021/07/23 01:25:30;;;;;;;4.90;1.60;;;17.40;98.00;;;;;;5115349;28;20455;-71
2021/07/23 01:27:57;;;;;;;2.20;1.77;;;17.40;98.00;;;;;;5115079;28;20527;-71
2021/07/23 01:30:26;;;;;;;1.97;1.67;;;17.50;98.00;;;;;;5116002;28;20512;-71
2021/07/23 01:32:54;;;;;;;1.73;1.60;;;17.50;98.00;;;;;;5115740;28;20451;-71
2021/07/23 01:35:24;;;;;;;4.80;1.93;;;17.30;98.00;;;;;;5115630;28;20451;-71
2021/07/23 01:37:55;;;;;;;2.03;1.60;;;17.10;98.00;;;;;;5115732;28;20486;-71
2021/07/23 01:40:23;;;;;;;2.60;1.50;;;17.10;98.00;;;;;;5115066;28;20481;-71
2021/07/23 01:42:53;;;;;;;1.30;1.30;;;17.00;98.00;;;;;;5115595;28;20458;-71
2021/07/23 01:45:20;;;;;;;1.40;1.40;;;17.10;98.00;;;;;;5115402;28;20607;-70
2021/07/23 01:47:47;;;;;;;2.47;1.70;;;17.10;98.00;;;;;;5114174;28;21110;-71
2021/07/23 01:50:14;;;;;;;2.30;1.57;;;17.20;98.00;;;;;;5115327;28;20485;-71
2021/07/23 01:52:41;;;;;;;2.80;1.97;;;17.10;98.00;;;;;;5115343;28;20508;-71
2021/07/23 01:55:09;;;;;;;2.00;1.63;;;17.20;98.00;;;;;;5115172;28;20463;-71
2021/07/23 01:57:36;;;;;;;3.03;1.73;;;17.10;98.00;;;;;;5115125;28;20522;-71
2021/07/23 02:00:06;;;;;;;2.00;1.50;;;17.00;98.00;;;;;;5115031;28;20504;-72
2021/07/23 02:02:34;;;;;;;2.20;1.80;;;16.90;98.00;;;;;;5114730;28;20825;-71
2021/07/23 02:05:02;;;;;;;4.17;1.60;;;16.90;98.00;;;;;;5114729;28;21022;-71
2021/07/23 02:07:30;;;;;;;2.67;1.87;;;16.90;98.00;;;;;;5114770;28;20511;-71
2021/07/23 02:09:57;;;;;;;2.17;1.50;;;17.10;98.00;;;;;;5113134;28;20459;-71
2021/07/23 02:12:24;;;;;;;1.80;1.63;;;17.10;98.00;;;;;;5114830;28;20478;-71
2021/07/23 02:14:52;;;;;;;2.50;1.80;;;16.90;98.00;;;;;;5114575;28;20455;-71
2021/07/23 02:17:20;;;;;;;3.77;2.03;;;16.80;98.00;;;;;;5113241;28;20483;-71
2021/07/23 02:19:47;;;;;;;1.97;1.60;;;17.00;98.00;;;;;;5114502;28;20520;-71
2021/07/23 02:22:14;;;;;;;3.37;1.90;;;17.00;98.00;;;;;;5114389;28;20505;-71
2021/07/23 02:24:42;;;;;;;1.90;1.60;;;17.00;98.00;;;;;;5114205;28;20458;-71
2021/07/23 02:27:12;;;;;;;2.63;1.50;;;16.90;98.00;;;;;;5113972;28;20499;-71
2021/07/23 02:29:39;;;;;;;1.53;1.47;;;16.90;98.00;;;;;;5114456;28;20455;-71
2021/07/23 02:32:07;;;;;;;1.30;1.20;;;16.80;98.00;;;;;;5114111;28;20535;-71
2021/07/23 02:34:36;;;;;;;1.73;1.57;;;16.80;98.00;;;;;;5114203;28;20457;-71
2021/07/23 02:37:03;;;;;;;1.73;1.50;;;16.70;98.00;;;;;;5114120;28;20944;-71
2021/07/23 02:39:30;;;;;;;3.10;1.80;;;16.60;98.00;;;;;;5114000;28;20507;-71
2021/07/23 02:41:57;;;;;;;3.17;1.97;;;16.60;98.00;;;;;;5114043;28;20490;-71
2021/07/23 02:44:25;;;;;;;2.83;1.70;;;16.60;98.00;;;;;;5113914;28;20515;-71
2021/07/23 02:46:52;;;;;;;2.20;1.57;;;16.50;98.00;;;;;;5113864;28;20520;-71
2021/07/23 02:49:19;;;;;;;1.80;1.30;;;16.60;98.00;;;;;;5114097;28;20516;-71
2021/07/23 02:51:47;;;;;;;1.73;1.67;;;16.60;98.00;;;;;;5113955;28;20495;-71
2021/07/23 02:54:14;;;;;;;2.43;1.40;;;16.50;98.00;;;;;;5113949;28;20512;-71
2021/07/23 02:56:41;;;;;;;4.17;1.83;;;16.50;98.00;;;;;;5113865;28;20866;-71
2021/07/23 02:59:08;;;;;;;1.40;1.40;;;16.60;98.00;;;;;;5113695;28;20481;-72
2021/07/23 03:01:38;;;;;;;1.60;1.30;;;16.50;98.00;;;;;;5113782;28;20502;-71
2021/07/23 03:04:06;;;;;;;4.00;1.77;;;16.40;98.00;;;;;;5112718;28;20512;-71
2021/07/23 03:06:33;;;;;;;1.60;1.50;;;16.40;98.00;;;;;;5113835;28;20455;-71
2021/07/23 03:09:02;;;;;;;2.40;1.57;;;16.60;98.00;;;;;;5113909;28;20487;-71
2021/07/23 03:11:29;;;;;;;2.97;1.73;;;16.70;98.00;;;;;;5113560;28;20527;-71
2021/07/23 03:13:58;;;;;;;1.43;1.40;;;16.70;98.00;;;;;;5113635;28;20491;-71
2021/07/23 03:16:26;;;;;;;2.43;2.17;;;16.60;98.00;;;;;;5113234;28;20447;-71
2021/07/23 03:18:54;;;;;;;1.80;1.47;;;16.50;98.00;;;;;;5113426;28;20458;-71
2021/07/23 03:21:22;;;;;;;2.33;1.80;;;16.40;98.00;;;;;;5113156;28;20470;-71
2021/07/23 03:23:50;;;;;;;2.13;1.93;;;16.50;98.00;;;;;;5113226;28;21034;-71
2021/07/23 03:26:19;;;;;;;1.83;1.40;;;16.50;98.00;;;;;;5113164;28;20999;-71
2021/07/23 03:28:46;;;;;;;1.93;1.67;;;16.40;98.00;;;;;;5112960;28;20532;-71
2021/07/23 03:31:14;;;;;;;2.20;1.90;;;16.40;98.00;;;;;;5113221;28;20862;-71
2021/07/23 03:33:41;;;;;;;1.80;1.50;;;16.60;98.00;;;;;;5113208;28;20801;-71
2021/07/23 03:36:08;;;;;;;2.53;2.00;;;16.50;98.00;;;;;;5112764;28;20483;-71
2021/07/23 03:38:35;;;;;;;1.40;1.37;;;16.40;98.00;;;;;;5112712;28;20517;-71
2021/07/23 03:41:02;;;;;;;1.43;1.37;;;16.50;98.00;;;;;;5112911;28;21014;-71
2021/07/23 03:43:31;;;;;;;2.63;2.00;;;16.60;98.00;;;;;;5113008;28;20480;-71
2021/07/23 03:45:59;;;;;;;1.57;1.40;;;16.50;98.00;;;;;;5112746;28;20516;-71
2021/07/23 03:48:26;;;;;;;2.47;1.73;;;16.30;98.00;;;;;;5112796;28;20926;-71
2021/07/23 03:50:53;;;;;;;3.00;1.80;;;16.20;98.00;;;;;;5112599;28;20486;-71
2021/07/23 03:53:26;;;;;;;2.53;1.57;;;16.00;98.00;;;;;;5112787;28;20961;-71
2021/07/23 03:55:53;;;;;;;1.43;1.30;;;16.00;98.00;;;;;;5112280;28;21079;-71
2021/07/23 03:58:20;;;;;;;1.60;1.30;;;15.90;98.00;;;;;;5112399;28;21004;-71
2021/07/23 04:00:50;;;;;;;2.50;1.90;;;16.00;98.00;;;;;;5112961;28;20483;-71
2021/07/23 04:03:17;;;;;;;1.93;1.40;;;16.00;98.00;;;;;;5112516;28;20515;-71
2021/07/23 04:05:46;;;;;;;1.60;1.43;;;16.10;98.00;;;;;;5112613;28;20956;-71
2021/07/23 04:08:13;;;;;;;4.57;1.40;;;16.30;98.00;;;;;;5112861;28;20455;-71
2021/07/23 04:10:42;;;;;;;2.03;1.63;;;16.40;98.00;;;;;;5111840;28;20552;-71
2021/07/23 04:13:09;;;;;;;2.23;1.50;;;16.30;98.00;;;;;;5112444;28;20947;-71
2021/07/23 04:15:35;;;;;;;1.30;1.30;;;16.30;98.00;;;;;;5112418;28;20514;-71
2021/07/23 04:18:04;;;;;;;4.43;1.30;;;16.20;98.00;;;;;;5112443;28;20583;-71
2021/07/23 04:20:31;;;;;;;3.80;1.83;;;16.20;98.00;;;;;;5112476;28;20576;-71
2021/07/23 04:22:58;;;;;;;1.70;1.60;;;16.20;98.00;;;;;;5112320;28;20485;-71
2021/07/23 04:25:27;;;;;;;2.07;1.50;;;16.20;98.00;;;;;;5112486;28;20942;-71
2021/07/23 04:27:56;;;;;;;1.70;1.37;;;16.00;98.00;;;;;;5111359;28;20463;-71
2021/07/23 04:30:24;;;;;;;2.73;1.83;;;16.00;98.00;;;;;;5112510;28;20486;-71
2021/07/23 04:32:52;;;;;;;1.53;1.30;;;16.00;98.00;;;;;;5112343;28;20455;-71
2021/07/23 04:35:20;;;;;;;2.20;1.40;;;15.90;98.00;;;;;;5112307;28;20473;-71
2021/07/23 04:37:47;;;;;;;2.03;1.50;;;15.90;98.00;;;;;;5112246;28;20479;-71
2021/07/23 04:40:15;;;;;;;1.73;1.20;;;15.90;98.00;;;;;;5112046;28;21066;-71
2021/07/23 04:42:42;;;;;;;1.80;1.57;;;16.00;98.00;;;;;;5111933;28;20512;-71
2021/07/23 04:45:10;;;;;;;2.70;1.73;;;16.00;98.00;;;;;;5112024;28;20455;-71
2021/07/23 04:47:37;;;;;;;1.60;1.30;;;16.10;98.00;;;;;;5111845;28;21176;-71
2021/07/23 04:50:06;;;;;;;1.30;1.20;;;16.00;98.00;;;;;;5111970;28;20493;-71
2021/07/23 04:52:51;;;;;;;2.77;1.70;;;16.00;98.00;;;;;;5111831;28;20543;-70
2021/07/23 04:55:18;;;;;;;2.83;1.80;;;16.20;98.00;;;;;;5111956;28;21060;-71
2021/07/23 04:57:46;;;;;;;2.03;1.60;;;16.40;98.00;;;;;;5111589;28;21032;-71
2021/07/23 05:00:14;;;;;;;1.87;1.67;;;16.40;98.00;;;;;;5111970;28;20458;-71
2021/07/23 05:02:42;;;;;;;2.53;1.70;;;16.40;98.00;;;;;;5111559;28;20517;-71
2021/07/23 05:05:13;;;;;;;1.60;1.50;;;16.70;98.00;;;;;;5111944;28;20483;-71
2021/07/23 05:07:43;;;;;;;1.90;1.60;;;16.90;98.00;;;;;;5111831;28;20455;-71
2021/07/23 05:10:11;;;;;;;2.30;1.53;;;17.00;98.00;;;;;;5112083;28;20792;-71
2021/07/23 05:12:39;;;;;;;2.77;1.60;;;17.10;98.00;;;;;;5111837;28;21077;-71
2021/07/23 05:15:09;;;;;;;2.00;1.73;;;17.30;98.00;;;;;;5111761;28;20555;-71
2021/07/23 05:17:38;;;;;;;2.23;1.77;;;17.30;98.00;;;;;;5111680;28;20479;-71
2021/07/23 05:20:09;;;;;;;2.00;1.53;;;17.10;98.00;;;;;;5110545;28;20454;-71
2021/07/23 05:22:38;;;;;;;1.77;1.50;;;17.00;98.00;;;;;;5113219;28;20455;-71
2021/07/23 05:25:08;;;;;;;3.80;2.20;;;16.90;98.00;;;;;;5115546;28;20450;-71
2021/07/23 05:27:36;;;;;;;2.30;1.50;;;16.90;98.00;;;;;;5115569;28;20547;-71
2021/07/23 05:30:03;;;;;;;8.13;1.93;;;17.00;98.00;;;;;;5115247;28;20562;-71
2021/07/23 05:32:30;;;;;;;2.10;1.57;;;17.10;98.00;;;;;;5115334;28;20504;-71
2021/07/23 05:34:57;;;;;;;1.63;1.53;;;17.10;98.00;;;;;;5115468;28;20447;-71
2021/07/23 05:37:25;;;;;;;5.83;1.83;;;17.00;98.00;;;;;;5115333;28;20478;-71
2021/07/23 05:39:52;;;;;;;1.30;1.20;;;17.20;98.00;;;;;;5115342;28;20520;-71
2021/07/23 05:42:20;;;;;;;2.23;1.73;;;17.30;98.00;;;;;;5115249;28;20865;-71
2021/07/23 05:44:47;;;;;;;1.50;1.40;;;17.30;98.00;;;;;;5115302;28;20463;-71
2021/07/23 05:47:14;;;;;;;2.70;1.70;;;17.30;98.00;;;;;;5115483;28;20516;-71
2021/07/23 05:49:41;;;;;;;2.30;1.83;;;17.40;98.00;;;;;;5115212;28;20592;-71
2021/07/23 05:52:08;;;;;;;1.77;1.70;;;17.60;98.00;;;;;;5115344;28;20491;-71
2021/07/23 05:54:36;;;;;;;2.13;1.80;;;17.70;98.00;;;;;;5115383;28;21017;-71
2021/07/23 05:57:03;;;;;;;2.43;1.97;;;17.90;98.00;;;;;;5115085;28;20953;-71
2021/07/23 05:59:32;;;;;;;4.43;2.57;;;18.00;98.00;;;;;;5114828;28;20479;-71
2021/07/23 06:01:59;;;;;;;1.50;1.43;;;18.10;98.00;;;;;;5114577;28;20478;-71
2021/07/23 06:04:26;;;;;;;5.73;1.63;;;18.10;98.00;;;;;;5114869;28;20485;-70
2021/07/23 06:06:53;;;;;;;3.23;1.90;;;18.20;98.00;;;;;;5114711;28;21010;-71
2021/07/23 06:09:20;;;;;;;3.57;2.07;;;18.30;98.00;;;;;;5114845;28;20536;-70
2021/07/23 06:11:47;;;;;;;3.13;2.50;;;18.40;98.00;;;;;;5114367;28;20547;-70
2021/07/23 06:14:13;;;;;;;1.73;1.60;;;18.40;98.00;;;;;;5114687;28;20520;-70
2021/07/23 06:16:42;;;;;;;1.80;1.70;;;18.40;98.00;;;;;;5114445;28;21022;-70
2021/07/23 06:19:09;;;;;;;4.07;1.50;;;18.50;98.00;;;;;;5113035;28;20474;-71
2021/07/23 06:21:36;;;;;;;2.80;1.93;;;18.60;98.00;;;;;;5113212;28;20495;-69
2021/07/23 06:24:04;;;;;;;2.57;2.10;;;18.70;98.00;;;;;;5114599;28;20459;-70
2021/07/23 06:26:31;;;;;;;2.47;1.87;;;18.80;98.00;;;;;;5114128;28;20471;-70
2021/07/23 06:28:58;;;;;;;1.70;1.50;;;19.00;98.00;;;;;;5114279;28;20455;-70
2021/07/23 06:31:25;;;;;;;3.43;1.70;;;19.10;98.00;;;;;;5113060;28;20461;-70
2021/07/23 06:33:54;;;;;;;2.40;2.00;;;19.10;98.00;;;;;;5113679;28;20456;-69
2021/07/23 06:36:21;;;;;;;2.57;2.07;;;19.00;98.00;;;;;;5114313;28;20447;-69
2021/07/23 06:38:48;;;;;;;1.73;1.67;;;19.00;98.00;;;;;;5114034;28;20575;-69
2021/07/23 06:41:15;;;;;;;5.13;2.50;;;19.10;98.00;;;;;;5114016;28;20513;-69
2021/07/23 06:43:42;;;;;;;2.80;2.03;;;19.30;98.00;;;;;;5114014;28;20512;-70
2021/07/23 06:46:09;;;;;;;1.87;1.73;;;19.40;98.00;;;;;;5113937;28;20483;-70
2021/07/23 06:48:37;;;;;;;3.43;2.20;;;19.40;98.00;;;;;;5113945;28;21033;-69
2021/07/23 06:51:05;;;;;;;1.60;1.53;;;19.60;98.00;;;;;;5114148;28;20801;-69
2021/07/23 06:53:32;;;;;;;3.20;2.03;;;19.60;98.00;;;;;;5113832;28;20550;-69
2021/07/23 06:55:59;;;;;;;2.13;1.80;;;19.50;98.00;;;;;;5113952;28;20493;-69
2021/07/23 06:58:26;;;;;;;2.43;1.97;;;19.50;98.00;;;;;;5113560;28;20536;-69
2021/07/23 07:00:54;;;;;;;2.27;1.70;;;19.60;98.00;;;;;;5113786;28;20552;-69
2021/07/23 07:03:21;;;;;;;2.67;2.10;;;19.70;98.00;;;;;;5113533;28;20518;-69
2021/07/23 07:05:50;;;;;;;2.47;1.83;;;19.70;98.00;;;;;;5112873;28;20490;-69
2021/07/23 07:08:19;;;;;;;2.60;1.90;;;19.80;98.00;;;;;;5112940;28;20482;-70
2021/07/23 07:10:46;;;;;;;2.43;1.93;;;19.80;98.00;;;;;;5112892;28;21029;-69
2021/07/23 07:13:13;;;;;;;1.70;1.60;;;19.90;98.00;;;;;;5112987;28;20883;-70
2021/07/23 07:15:44;;;;;;;5.03;3.03;;;20.00;98.00;;;;;;5113349;28;20478;-70
2021/07/23 07:18:11;;;;;;;1.73;1.60;;;20.10;98.00;;;;;;5113358;28;20487;-69
2021/07/23 07:20:38;;;;;;;2.30;2.00;;;20.20;98.00;;;;;;5113158;28;20643;-70
2021/07/23 07:23:05;;;;;;;1.87;1.77;;;20.30;98.00;;;;;;5113148;28;20862;-70
2021/07/23 07:25:34;;;;;;;2.30;1.90;;;20.30;98.00;;;;;;5113321;28;20462;-70
2021/07/23 07:28:02;;;;;;;1.87;1.77;;;20.30;98.00;;;;;;5113039;28;20474;-70
2021/07/23 07:30:29;;;;;;;1.77;1.73;;;20.40;98.00;;;;;;5111906;28;20467;-69
2021/07/23 07:32:58;;;;;;;2.00;1.90;;;20.60;98.00;;;;;;5113167;28;20463;-69
2021/07/23 07:35:25;;;;;;;4.80;2.43;;;20.80;98.00;;;;;;5098136;27;20457;-68
2021/07/23 07:37:52;;;;;;;3.07;2.10;;;20.90;98.00;;;;;;5099338;28;20968;-69
2021/07/23 07:40:19;;;;;;;2.90;2.00;;;21.00;98.00;;;;;;5088438;28;20452;-69
2021/07/23 07:42:48;;;;;;;2.40;1.77;;;21.00;98.00;;;;;;5088327;28;20538;-70
2021/07/23 07:45:15;;;;;;;4.50;2.03;;;21.20;98.00;;;;;;5098907;28;20509;-68
2021/07/23 07:47:42;;;;;;;1.67;1.57;;;21.40;98.00;;;;;;5108186;28;20478;-68
2021/07/23 07:50:11;;;;;;;2.10;1.40;;;21.60;98.00;;;;;;5096474;28;20508;-69
2021/07/23 07:52:38;;;;;;;2.80;2.10;;;21.90;98.00;;;;;;5098560;28;20459;-70
2021/07/23 07:55:06;;;;;;;2.60;2.43;;;22.10;98.00;;;;;;5099819;28;20450;-70
2021/07/23 07:57:33;;;;;;;2.10;1.77;;;22.30;98.00;;;;;;5091002;28;20545;-71
2021/07/23 08:00:01;;;;;;;1.83;1.53;;;22.20;98.00;;;;;;5107568;28;20486;-70
2021/07/23 08:02:28;;;;;;;2.30;1.63;;;22.30;98.00;;;;;;5099689;28;20520;-71
2021/07/23 08:04:55;;;;;;;3.50;2.20;;;22.50;98.00;;;;;;5098192;28;20491;-71
2021/07/23 08:07:29;;;;;;;1.73;1.57;;;22.60;98.00;;;;;;5098309;28;20823;-70
2021/07/23 08:09:59;;;;;;;3.47;2.03;;;22.70;98.00;;;;;;5090418;28;20444;-70
2021/07/23 08:12:26;;;;;;;2.20;1.90;;;22.90;98.00;;;;;;5099258;28;20460;-70
2021/07/23 08:14:53;;;;;;;2.17;1.73;;;22.80;98.00;;;;;;5107359;28;21014;-71
2021/07/23 08:17:23;;;;;;;3.23;1.67;;;23.00;98.00;;;;;;5099337;28;20472;-73
2021/07/23 08:19:50;;;;;;;1.60;1.60;;;23.20;98.00;;;;;;5098730;28;20515;-73
2021/07/23 08:22:18;;;;;;;2.37;2.00;;;23.30;98.00;;;;;;5107188;28;20446;-72
2021/07/23 08:24:45;;;;;;;2.13;1.67;;;23.40;98.00;;;;;;5108180;28;20841;-73
2021/07/23 08:27:14;;;;;;;2.80;1.90;;;23.60;98.00;;;;;;5098170;28;20829;-71
2021/07/23 08:29:40;;;;;;;2.23;2.10;;;23.80;98.00;;;;;;5098853;28;20510;-71
2021/07/23 08:32:08;;;;;;;2.90;2.10;;;23.90;98.00;;;;;;5098808;28;20474;-70
2021/07/23 08:34:40;;;;;;;3.27;2.00;;;24.00;98.00;;;;;;5099198;28;20456;-70
2021/07/23 08:37:08;;;;;;;2.80;2.17;;;24.00;98.00;;;;;;5098673;28;20498;-71
2021/07/23 08:39:38;;;;;;;1.90;1.80;;;24.10;98.00;;;;;;5098878;28;20495;-70
2021/07/23 08:42:28;;;;;;;2.70;2.17;;;24.20;98.00;;;;;;5099386;28;20456;-69
2021/07/23 08:44:55;;;;;;;2.63;2.13;;;24.30;98.00;;;;;;5105462;28;21083;-69
2021/07/23 08:47:23;;;;;;;2.40;2.30;;;24.30;98.00;;;;;;5099476;28;20490;-69
2021/07/23 08:49:52;;;;;;;3.83;2.20;;;24.30;97.40;;;;;;5094851;28;20499;-69
2021/07/23 08:52:37;;;;;;;3.03;1.93;;;24.30;97.60;;;;;;5100098;28;20460;-69
2021/07/23 08:55:04;;;;;;;1.73;1.67;;;24.40;96.40;;;;;;5094018;28;20464;-71
2021/07/23 08:57:32;;;;;;;3.53;2.27;;;24.50;97.80;;;;;;5104114;28;20455;-71
2021/07/23 08:59:59;;;;;;;3.57;2.47;;;24.70;97.00;;;;;;5102795;28;21058;-71
2021/07/23 09:02:50;;;;;;;4.27;2.60;;;24.70;94.50;;;;;;5107762;28;20455;-70
2021/07/23 09:05:20;;;;;;;2.47;2.10;;;24.70;96.40;;;;;;5102864;28;20459;-71
2021/07/23 09:07:48;;;;;;;1.90;1.50;;;24.90;96.50;;;;;;5101091;28;20491;-71
2021/07/23 09:10:22;;;;;;;2.00;1.80;;;25.10;94.50;;;;;;5103772;28;20501;-71
2021/07/23 09:12:51;;;;;;;4.47;2.50;;;25.20;94.60;;;;;;5102083;28;20961;-71
2021/07/23 09:15:24;;;;;;;4.93;2.20;;;25.10;91.20;;;;;;5102322;28;20809;-70
2021/07/23 09:17:52;;;;;;;2.50;1.70;;;25.20;94.00;;;;;;5103400;28;20460;-71
2021/07/23 09:20:29;;;;;;;3.30;1.90;;;25.30;93.50;;;;;;5102254;28;20929;-72
2021/07/23 09:22:57;;;;;;;1.97;1.83;;;25.50;89.30;;;;;;5093211;28;20456;-73
2021/07/23 09:25:51;;;;;;;2.60;1.83;;;25.50;87.30;;;;;;5102400;28;20512;-72
2021/07/23 09:28:24;;;;;;;3.03;2.10;;;25.60;89.60;;;;;;5098139;28;20471;-72
2021/07/23 09:30:52;;;;;;;2.27;1.87;;;25.60;87.10;;;;;;5098400;28;20953;-71
2021/07/23 09:33:28;;;;;;;2.60;1.93;;;25.50;86.30;;;;;;5105865;28;20454;-73
2021/07/23 09:35:57;;;;;;;2.77;1.90;;;25.40;87.40;;;;;;5104057;28;20487;-71
2021/07/23 09:38:25;;;;;;;2.80;1.90;;;25.50;87.20;;;;;;5098633;28;21139;-72
2021/07/23 09:40:53;;;;;;;4.00;2.73;;;25.70;87.50;;;;;;5097541;28;20495;-72
2021/07/23 09:43:35;;;;;;;2.67;1.70;;;26.00;87.70;;;;;;5101883;28;20452;-72
2021/07/23 09:46:24;;;;;;;2.50;2.30;;;26.10;91.80;;;;;;5101436;28;21022;-71
2021/07/23 09:48:52;;;;;;;2.53;2.00;;;26.20;88.60;;;;;;5110078;28;20584;-72
2021/07/23 09:51:24;;;;;;;2.90;2.37;;;26.20;86.00;;;;;;5095863;28;20448;-70
2021/07/23 09:53:51;;;;;;;2.37;1.80;;;26.50;87.70;;;;;;5093310;28;20973;-71
2021/07/23 09:56:19;;;;;;;3.37;2.10;;;26.70;88.50;;;;;;5101266;28;20491;-71
2021/07/23 09:58:49;;;;;;;3.27;2.07;;;26.80;89.20;;;;;;5100966;28;20494;-71
2021/07/23 10:01:21;;;;;;;4.10;2.70;;;26.90;86.00;;;;;;5093581;28;20478;-71
2021/07/23 10:03:50;;;;;;;3.53;2.27;;;27.10;87.30;;;;;;5084703;28;20894;-70
2021/07/23 10:06:26;;;;;;;3.67;2.17;;;27.20;88.10;;;;;;5109687;28;20487;-70
2021/07/23 10:08:56;;;;;;;3.63;2.30;;;27.30;85.10;;;;;;5093241;28;20551;-69
2021/07/23 10:11:24;;;;;;;4.20;2.27;;;27.20;86.70;;;;;;5092719;28;21056;-71
2021/07/23 10:13:54;;;;;;;5.40;2.77;;;27.30;86.90;;;;;;5094205;28;21766;-70
2021/07/23 10:16:22;;;;;;;2.70;2.10;;;27.20;85.80;;;;;;5107625;28;20497;-70
2021/07/23 10:18:50;;;;;;;3.40;2.40;;;27.10;86.30;;;;;;5094218;28;22023;-70
2021/07/23 10:21:17;;;;;;;3.20;2.30;;;27.10;89.70;;;;;;5098909;28;20520;-70
2021/07/23 10:23:47;;;;;;;2.67;2.20;;;27.20;86.70;;;;;;5093234;28;20974;-70
2021/07/23 10:26:14;;;;;;;3.00;2.20;;;27.30;85.80;;;;;;5101850;28;20565;-70
2021/07/23 10:28:57;;;;;;;2.10;1.80;;;27.30;85.30;;;;;;5092478;28;20447;-70
2021/07/23 10:31:42;;;;;;;5.40;3.17;;;27.30;85.70;;;;;;5101477;28;20508;-70
2021/07/23 10:34:10;;;;;;;2.90;1.97;;;27.40;87.40;;;;;;5098081;28;20522;-69
2021/07/23 10:36:42;;;;;;;4.53;2.43;;;27.50;85.90;;;;;;5099338;28;20971;-69
2021/07/23 10:39:17;;;;;;;3.27;2.37;;;27.60;84.90;;;;;;5101977;28;20487;-68
2021/07/23 10:42:31;;;;;;;2.80;2.30;;;27.90;84.20;;;;;;5108326;28;20454;-69
2021/07/23 10:44:58;;;;;;;3.57;2.60;;;28.00;81.40;;;;;;5097787;28;20460;-69
2021/07/23 10:47:42;;;;;;;5.40;2.40;;;28.10;83.30;;;;;;5091607;28;20462;-68
2021/07/23 10:50:16;;;;;;;6.13;2.93;;;28.30;81.70;;;;;;5103974;28;20504;-68
2021/07/23 10:52:43;;;;;;;3.00;2.07;;;28.40;82.10;;;;;;5109528;28;20451;-69
2021/07/23 10:55:19;;;;;;;2.33;2.20;;;28.50;82.30;;;;;;5099827;28;20443;-69
2021/07/23 10:58:08;;;;;;;3.60;2.57;;;28.70;84.70;;;;;;5092982;28;20491;-69
2021/07/23 11:00:45;;;;;;;3.93;2.37;;;28.90;81.20;;;;;;5092319;28;20574;-70
2021/07/23 11:04:01;;;;;;;2.70;2.23;;;29.10;83.70;;;;;;5094884;28;20929;-69
2021/07/23 11:06:34;;;;;;;2.47;2.30;;;29.20;81.80;;;;;;5105880;28;20793;-68
2021/07/23 11:09:04;;;;;;;4.00;2.60;;;29.50;80.00;;;;;;5091860;28;20467;-70
2021/07/23 11:11:34;;;;;;;2.90;2.30;;;29.60;78.80;;;;;;5100789;28;20501;-69
2021/07/23 11:14:20;;;;;;;3.63;2.37;;;29.60;78.60;;;;;;5091739;28;20951;-70
2021/07/23 11:16:47;;;;;;;3.87;2.70;;;29.60;80.50;;;;;;5083791;28;20485;-70
2021/07/23 11:19:20;;;;;;;2.50;2.00;;;29.60;79.70;;;;;;5108846;28;20992;-69
2021/07/23 11:21:48;;;;;;;3.77;2.60;;;29.80;79.30;;;;;;5107632;28;20487;-68
2021/07/23 11:24:16;;;;;;;2.73;2.20;;;29.90;78.60;;;;;;5091648;28;20495;-69
2021/07/23 11:26:52;;;;;;;4.00;2.53;;;30.00;79.20;;;;;;5090314;28;20468;-69
2021/07/23 11:29:41;;;;;;;3.87;2.40;;;30.10;77.50;;;;;;5100730;28;20462;-69
2021/07/23 11:32:10;;;;;;;4.60;2.77;;;30.30;77.40;;;;;;5093771;28;20459;-67
2021/07/23 11:34:38;;;;;;;2.77;2.47;;;30.50;76.60;;;;;;5105315;28;20447;-68
2021/07/23 11:37:17;;;;;;;4.10;2.83;;;30.80;75.40;;;;;;5096715;28;20456;-69
2021/07/23 11:39:54;;;;;;;4.10;3.23;;;30.80;74.20;;;;;;5099786;28;20489;-68
2021/07/23 11:42:26;;;;;;;2.60;2.50;;;30.80;73.80;;;;;;5091379;28;20538;-70
2021/07/23 11:44:54;;;;;;;5.20;2.53;;;30.70;74.40;;;;;;5100119;28;20496;-69
2021/07/23 11:47:32;;;;;;;3.30;2.60;;;30.20;76.10;;;;;;5100899;28;20871;-70
2021/07/23 11:50:01;;;;;;;5.70;2.73;;;30.00;76.50;;;;;;5091320;28;20966;-71
2021/07/23 11:52:28;;;;;;;3.70;2.23;;;30.00;76.40;;;;;;5082018;28;20484;-71
2021/07/23 11:55:00;;;;;;;3.63;2.57;;;30.30;75.90;;;;;;5109204;28;20520;-69
2021/07/23 11:57:30;;;;;;;3.10;2.40;;;30.60;76.40;;;;;;5091599;28;20465;-71
2021/07/23 11:59:58;;;;;;;3.10;2.23;;;30.90;74.20;;;;;;5109060;28;20486;-69
2021/07/23 12:02:27;;;;;;;3.60;2.50;;;31.20;74.90;;;;;;5090901;28;20807;-70
2021/07/23 12:05:09;;;;;;;4.10;2.60;;;31.10;74.60;;;;;;5100419;28;20517;-70
2021/07/23 12:07:37;;;;;;;4.03;2.43;;;30.60;76.60;;;;;;5107245;28;20503;-70
2021/07/23 12:10:06;;;;;;;3.77;2.30;;;30.50;75.00;;;;;;5097052;28;20582;-69
2021/07/23 12:12:35;;;;;;;4.00;2.60;;;30.60;76.50;;;;;;5090223;28;20459;-69
2021/07/23 12:15:04;;;;;;;5.37;3.07;;;30.80;75.50;;;;;;5101608;28;20521;-68
2021/07/23 12:17:34;;;;;;;3.80;2.60;;;31.00;75.30;;;;;;5107296;28;20513;-70
2021/07/23 12:20:01;;;;;;;3.47;2.63;;;31.20;73.40;;;;;;5099532;28;20536;-69
2021/07/23 12:22:31;;;;;;;3.07;2.27;;;31.10;75.50;;;;;;5096332;28;20939;-70
2021/07/23 12:24:58;;;;;;;5.20;2.80;;;31.30;74.20;;;;;;5093147;28;20463;-69
2021/07/23 12:27:27;;;;;;;4.10;2.47;;;31.50;72.80;;;;;;5112180;28;20508;-69
2021/07/23 12:29:55;;;;;;;5.40;2.67;;;31.80;72.40;;;;;;5111083;28;20455;-69
2021/07/23 12:32:26;;;;;;;3.00;2.50;;;31.90;70.30;;;;;;5111709;28;20458;-69
2021/07/23 12:34:57;;;;;;;4.03;2.47;;;31.90;71.80;;;;;;5110724;28;20550;-69
2021/07/23 12:37:25;;;;;;;3.87;2.70;;;32.00;69.60;;;;;;5110752;28;20486;-68
2021/07/23 12:39:56;;;;;;;2.90;2.27;;;31.70;68.80;;;;;;5112164;28;20953;-69
2021/07/23 12:42:24;;;;;;;4.23;2.70;;;31.50;69.40;;;;;;5112105;28;20977;-70
2021/07/23 12:44:51;;;;;;;3.63;2.50;;;31.30;71.00;;;;;;5112142;28;20543;-69
2021/07/23 12:47:22;;;;;;;3.57;2.53;;;31.20;71.80;;;;;;5112050;28;20447;-69
2021/07/23 12:49:50;;;;;;;4.00;2.50;;;31.10;71.30;;;;;;5112130;28;20463;-68
2021/07/23 12:52:18;;;;;;;3.23;2.40;;;31.10;71.90;;;;;;5111678;28;20514;-67
2021/07/23 12:54:46;;;;;;;4.30;2.87;;;31.10;71.90;;;;;;5112063;28;20459;-67
2021/07/23 12:57:22;;;;;;;4.13;2.53;;;31.30;73.20;;;;;;5111869;28;20451;-68
2021/07/23 12:59:52;;;;;;;2.60;1.90;;;31.40;70.80;;;;;;5112004;28;21068;-68